createdAt,value
2018-09-21T00:00:51.451Z,90.30
2018-09-21T00:03:20.905Z,90.50
2018-09-21T00:05:50.447Z,90.40
2018-09-21T00:08:20.029Z,91.30
2018-09-21T00:10:49.476Z,91.30
2018-09-21T00:13:18.919Z,91.60
2018-09-21T00:15:49.380Z,90.70
2018-09-21T00:18:18.824Z,91.00
2018-09-21T00:20:49.381Z,91.00
2018-09-21T00:23:18.759Z,90.50
2018-09-21T00:25:48.167Z,90.80
2018-09-21T00:28:17.697Z,90.80
2018-09-21T00:30:47.228Z,90.60
2018-09-21T00:33:17.464Z,90.60
2018-09-21T00:35:51.008Z,90.30
2018-09-21T00:38:20.696Z,90.70
2018-09-21T00:40:50.186Z,90.70
2018-09-21T00:43:19.660Z,90.50
2018-09-21T00:45:50.083Z,90.60
2018-09-21T00:48:19.623Z,90.90
2018-09-21T00:50:49.151Z,90.10
2018-09-21T00:53:18.615Z,90.10
2018-09-21T00:55:48.316Z,90.10
2018-09-21T00:58:17.890Z,90.70
2018-09-21T01:00:47.364Z,90.80
2018-09-21T01:03:16.852Z,90.80
2018-09-21T01:05:46.362Z,91.70
2018-09-21T01:08:15.923Z,90.70
2018-09-21T01:10:45.495Z,90.80
2018-09-21T01:13:14.911Z,91.30
2018-09-21T01:15:47.084Z,91.50
2018-09-21T01:18:16.520Z,91.30
2018-09-21T01:20:48.004Z,91.70
2018-09-21T01:23:17.410Z,91.10
2018-09-21T01:25:47.832Z,91.70
2018-09-21T01:28:17.295Z,91.30
2018-09-21T01:30:47.771Z,92.00
2018-09-21T01:33:18.091Z,92.30
2018-09-21T01:35:47.536Z,91.80
2018-09-21T01:38:17.031Z,91.60
2018-09-21T01:40:46.568Z,91.50
2018-09-21T01:43:17.096Z,91.50
2018-09-21T01:45:47.542Z,91.50
2018-09-21T01:48:17.003Z,91.10
2018-09-21T01:50:46.714Z,91.70
2018-09-21T01:53:16.244Z,91.20
2018-09-21T01:55:48.771Z,91.60
2018-09-21T01:58:18.393Z,91.10
2018-09-21T02:00:48.001Z,91.40
2018-09-21T02:03:17.402Z,91.60
2018-09-21T02:05:46.854Z,91.40
2018-09-21T02:08:16.318Z,91.70
2018-09-21T02:10:45.940Z,91.70
2018-09-21T02:13:15.447Z,92.30
2018-09-21T02:15:45.027Z,92.00
2018-09-21T02:18:14.663Z,92.50
2018-09-21T02:20:45.247Z,92.30
2018-09-21T02:23:14.850Z,92.40
2018-09-21T02:25:46.269Z,92.60
2018-09-21T02:28:15.817Z,92.60
2018-09-21T02:30:46.071Z,92.60
2018-09-21T02:33:16.551Z,93.10
2018-09-21T02:35:46.102Z,92.70
2018-09-21T02:38:15.602Z,93.20
2018-09-21T02:40:45.092Z,92.90
2018-09-21T02:43:14.606Z,93.40
2018-09-21T02:45:43.994Z,93.70
2018-09-21T02:48:13.507Z,93.90
2018-09-21T02:50:42.910Z,93.50
2018-09-21T02:53:12.291Z,93.70
2018-09-21T02:55:43.366Z,93.20
2018-09-21T02:58:13.770Z,93.10
2018-09-21T03:00:44.419Z,93.60
2018-09-21T03:03:13.713Z,93.40
2018-09-21T03:05:43.104Z,93.60
2018-09-21T03:08:12.841Z,93.90
2018-09-21T03:10:42.476Z,93.40
2018-09-21T03:13:12.048Z,93.00
2018-09-21T03:15:41.428Z,93.00
2018-09-21T03:18:10.978Z,93.00
2018-09-21T03:20:40.336Z,93.00
2018-09-21T03:23:09.817Z,93.40
2018-09-21T03:25:39.272Z,93.40
2018-09-21T03:28:09.765Z,92.90
2018-09-21T03:30:39.360Z,93.00
2018-09-21T03:33:09.807Z,92.60
2018-09-21T03:35:39.238Z,92.50
2018-09-21T03:38:09.731Z,92.10
2018-09-21T03:40:39.340Z,92.20
2018-09-21T03:43:09.794Z,92.70
2018-09-21T03:45:39.608Z,91.90
2018-09-21T03:48:09.215Z,91.80
2018-09-21T03:50:39.054Z,91.90
2018-09-21T03:53:11.039Z,91.60
2018-09-21T03:55:44.473Z,91.80
2018-09-21T03:58:15.461Z,91.80
2018-09-21T04:00:45.019Z,92.20
2018-09-21T04:03:14.559Z,92.40
2018-09-21T04:05:44.244Z,92.40
2018-09-21T04:08:13.715Z,93.00
2018-09-21T04:10:43.280Z,92.80
2018-09-21T04:13:12.727Z,93.10
2018-09-21T04:15:42.355Z,93.00
2018-09-21T04:18:11.945Z,93.40
2018-09-21T04:20:41.428Z,93.60
2018-09-21T04:23:10.842Z,94.40
2018-09-21T04:25:40.254Z,94.30
2018-09-21T04:28:09.776Z,94.40
2018-09-21T04:30:39.185Z,94.40
2018-09-21T04:33:08.719Z,94.90
2018-09-21T04:35:38.147Z,94.70
2018-09-21T04:38:07.609Z,94.60
2018-09-21T04:40:36.977Z,94.70
2018-09-21T04:43:06.435Z,94.90
2018-09-21T04:45:35.935Z,94.40
2018-09-21T04:48:05.320Z,94.20
2018-09-21T04:50:34.720Z,94.20
2018-09-21T04:53:04.198Z,94.20
2018-09-21T04:55:33.621Z,94.10
2018-09-21T04:58:03.108Z,94.00
2018-09-21T05:00:32.609Z,94.00
2018-09-21T05:03:02.005Z,94.20
2018-09-21T05:05:32.439Z,94.20
2018-09-21T05:08:02.805Z,94.30
2018-09-21T05:10:32.188Z,94.50
2018-09-21T05:13:02.552Z,94.80
2018-09-21T05:15:31.951Z,95.30
2018-09-21T05:18:02.421Z,94.70
2018-09-21T05:20:32.327Z,95.30
2018-09-21T05:23:01.803Z,95.40
2018-09-21T05:25:34.295Z,95.20
2018-09-21T05:28:03.784Z,95.40
2018-09-21T05:30:33.206Z,95.50
2018-09-21T05:33:02.602Z,95.10
2018-09-21T05:35:32.003Z,96.00
2018-09-21T05:38:01.419Z,96.00
2018-09-21T05:40:30.925Z,95.80
2018-09-21T05:43:00.322Z,95.10
2018-09-21T05:45:32.756Z,95.10
2018-09-21T05:48:02.152Z,95.40
2018-09-21T05:50:31.643Z,95.40
2018-09-21T05:53:01.006Z,95.00
2018-09-21T05:55:30.460Z,95.10
2018-09-21T05:58:01.011Z,94.50
2018-09-21T06:00:31.512Z,94.50
2018-09-21T06:03:00.946Z,95.30
2018-09-21T06:05:30.286Z,94.60
2018-09-21T06:08:03.863Z,94.60
2018-09-21T06:10:33.241Z,95.20
2018-09-21T06:13:02.656Z,94.70
2018-09-21T06:15:32.116Z,94.30
2018-09-21T06:18:01.597Z,94.70
2018-09-21T06:20:31.110Z,94.80
2018-09-21T06:23:00.796Z,94.90
2018-09-21T06:25:30.695Z,95.10
2018-09-21T06:28:00.082Z,95.50
2018-09-21T06:30:29.546Z,95.20
2018-09-21T06:32:58.975Z,95.40
2018-09-21T06:35:28.413Z,94.90
2018-09-21T06:37:57.769Z,95.60
2018-09-21T06:40:27.216Z,95.00
2018-09-21T06:42:57.556Z,95.10
2018-09-21T06:45:27.984Z,94.60
2018-09-21T06:47:58.525Z,95.10
2018-09-21T06:50:28.990Z,95.50
2018-09-21T06:52:58.437Z,96.40
2018-09-21T06:55:27.887Z,95.30
2018-09-21T06:57:58.295Z,95.90
2018-09-21T07:00:28.682Z,96.00
2018-09-21T07:02:58.147Z,97.20
2018-09-21T07:05:27.602Z,96.60
2018-09-21T07:07:57.076Z,96.90
2018-09-21T07:10:27.428Z,96.40
2018-09-21T07:12:56.941Z,95.00
2018-09-21T07:15:26.329Z,96.40
2018-09-21T07:17:55.707Z,95.40
2018-09-21T07:20:27.503Z,94.60
2018-09-21T07:22:57.665Z,94.20
2018-09-21T07:25:27.172Z,94.30
2018-09-21T07:27:57.544Z,93.60
2018-09-21T07:30:26.997Z,94.10
2018-09-21T07:32:56.518Z,93.30
2018-09-21T07:35:30.757Z,93.30
2018-09-21T07:38:00.265Z,93.10
2018-09-21T07:40:29.735Z,91.80
2018-09-21T07:42:59.151Z,92.30
2018-09-21T07:45:28.532Z,92.80
2018-09-21T07:47:58.642Z,91.90
2018-09-21T07:50:28.154Z,91.30
2018-09-21T07:52:57.468Z,92.20
2018-09-21T07:55:26.881Z,92.40
2018-09-21T07:57:56.331Z,92.30
2018-09-21T08:00:25.781Z,93.80
2018-09-21T08:02:55.304Z,92.90
2018-09-21T08:05:30.997Z,92.60
2018-09-21T08:08:00.983Z,93.50
2018-09-21T08:10:30.621Z,94.00
2018-09-21T08:13:00.641Z,93.00
2018-09-21T08:15:30.587Z,92.80
2018-09-21T08:18:00.121Z,92.20
2018-09-21T08:20:31.573Z,93.10
2018-09-21T08:23:01.015Z,91.50
2018-09-21T08:25:30.429Z,91.20
2018-09-21T08:27:59.860Z,90.50
2018-09-21T08:30:30.376Z,90.20
2018-09-21T08:33:02.921Z,90.20
2018-09-21T08:35:32.325Z,90.00
2018-09-21T08:38:01.792Z,87.90
2018-09-21T08:40:31.352Z,89.90
2018-09-21T08:43:00.755Z,90.10
2018-09-21T08:45:30.147Z,86.70
2018-09-21T08:47:59.590Z,88.30
2018-09-21T08:50:29.137Z,86.40
2018-09-21T08:52:58.527Z,86.80
2018-09-21T08:55:27.942Z,88.40
2018-09-21T08:57:57.417Z,87.90
2018-09-21T09:00:26.884Z,87.70
2018-09-21T09:02:56.563Z,87.20
2018-09-21T09:05:26.896Z,85.50
2018-09-21T09:07:58.346Z,90.30
2018-09-21T09:10:28.931Z,85.80
2018-09-21T09:12:59.302Z,85.70
2018-09-21T09:15:29.617Z,83.70
2018-09-21T09:17:59.133Z,83.80
2018-09-21T09:20:28.489Z,83.90
2018-09-21T09:22:59.910Z,84.70
2018-09-21T09:25:29.245Z,83.70
2018-09-21T09:27:58.632Z,83.00
2018-09-21T09:30:28.031Z,87.60
2018-09-21T09:32:57.593Z,87.40
2018-09-21T09:35:27.219Z,87.10
2018-09-21T09:37:57.687Z,89.90
2018-09-21T09:40:27.121Z,90.30
2018-09-21T09:42:56.525Z,86.80
2018-09-21T09:45:25.988Z,86.80
2018-09-21T09:47:55.400Z,86.20
2018-09-21T09:50:24.834Z,84.50
2018-09-21T09:52:58.195Z,83.60
2018-09-21T09:55:27.717Z,84.50
2018-09-21T09:57:57.079Z,82.90
2018-09-21T10:00:31.682Z,83.70
2018-09-21T10:03:01.046Z,82.50
2018-09-21T10:05:30.464Z,83.00
2018-09-21T10:07:59.894Z,82.80
2018-09-21T10:10:29.432Z,84.80
2018-09-21T10:12:58.744Z,81.60
2018-09-21T10:15:28.123Z,80.70
2018-09-21T10:17:57.607Z,79.60
2018-09-21T10:20:27.065Z,79.00
2018-09-21T10:22:57.502Z,80.30
2018-09-21T10:25:26.920Z,78.60
2018-09-21T10:28:00.392Z,83.80
2018-09-21T10:30:29.732Z,77.70
2018-09-21T10:33:01.195Z,79.30
2018-09-21T10:35:34.789Z,73.10
2018-09-21T10:38:04.125Z,75.20
2018-09-21T10:40:33.553Z,77.50
2018-09-21T10:43:03.012Z,79.80
2018-09-21T10:45:32.349Z,80.50
2018-09-21T10:48:02.888Z,80.60
2018-09-21T10:50:34.308Z,80.70
2018-09-21T10:53:03.696Z,79.80
2018-09-21T10:55:33.116Z,86.30
2018-09-21T10:58:02.595Z,79.00
2018-09-21T11:00:32.082Z,77.50
2018-09-21T11:03:01.446Z,79.00
2018-09-21T11:05:31.867Z,77.00
2018-09-21T11:08:01.528Z,77.30
2018-09-21T11:10:30.978Z,77.50
2018-09-21T11:13:00.458Z,76.20
2018-09-21T11:15:31.867Z,76.00
2018-09-21T11:18:01.318Z,78.30
2018-09-21T11:20:30.654Z,76.40
2018-09-21T11:23:00.738Z,72.60
2018-09-21T11:25:30.145Z,73.20
2018-09-21T11:27:59.566Z,73.20
2018-09-21T11:30:29.038Z,69.80
2018-09-21T11:32:59.633Z,71.10
2018-09-21T11:35:29.012Z,67.90
2018-09-21T11:37:58.402Z,70.30
2018-09-21T11:40:27.769Z,67.50
2018-09-21T11:42:57.168Z,72.70
2018-09-21T11:45:27.547Z,69.30
2018-09-21T11:47:57.021Z,68.20
2018-09-21T11:50:26.398Z,72.40
2018-09-21T11:53:00.581Z,70.70
2018-09-21T11:55:29.956Z,71.10
2018-09-21T11:58:03.291Z,71.20
2018-09-21T12:00:32.711Z,69.60
2018-09-21T12:03:03.123Z,70.50
2018-09-21T12:05:33.541Z,68.60
2018-09-21T12:08:02.932Z,68.80
2018-09-21T12:10:32.326Z,69.20
2018-09-21T12:13:01.796Z,64.90
2018-09-21T12:15:31.184Z,66.10
2018-09-21T12:18:00.570Z,67.90
2018-09-21T12:20:30.109Z,68.60
2018-09-21T12:22:59.536Z,67.20
2018-09-21T12:25:30.085Z,66.20
2018-09-21T12:27:59.540Z,65.00
2018-09-21T12:30:29.077Z,69.60
2018-09-21T12:32:58.544Z,67.40
2018-09-21T12:35:27.867Z,69.40
2018-09-21T12:37:57.317Z,68.30
2018-09-21T12:40:26.741Z,67.50
2018-09-21T12:42:57.127Z,70.40
2018-09-21T12:45:26.461Z,74.20
2018-09-21T12:47:58.296Z,67.70
2018-09-21T12:50:27.851Z,67.60
2018-09-21T12:52:57.241Z,67.80
2018-09-21T12:55:26.652Z,69.10
2018-09-21T12:57:56.075Z,62.50
2018-09-21T13:00:31.775Z,63.10
2018-09-21T13:03:01.308Z,68.70
2018-09-21T13:05:31.862Z,67.70
2018-09-21T13:08:02.268Z,69.50
2018-09-21T13:10:31.634Z,70.70
2018-09-21T13:13:01.128Z,69.20
2018-09-21T13:15:30.525Z,70.50
2018-09-21T13:17:59.999Z,68.30
2018-09-21T13:20:33.407Z,66.90
2018-09-21T13:23:02.909Z,66.40
2018-09-21T13:25:33.495Z,67.30
2018-09-21T13:28:02.929Z,69.90
2018-09-21T13:30:32.312Z,70.50
2018-09-21T13:33:01.792Z,73.80
2018-09-21T13:35:31.301Z,73.50
2018-09-21T13:38:00.932Z,69.00
2018-09-21T13:40:30.340Z,71.80
2018-09-21T13:42:59.822Z,69.20
2018-09-21T13:45:29.184Z,67.40
2018-09-21T13:47:58.544Z,61.40
2018-09-21T13:50:27.913Z,61.00
2018-09-21T13:52:57.249Z,60.20
2018-09-21T13:55:26.661Z,59.00
2018-09-21T13:57:56.109Z,60.70
2018-09-21T14:00:26.512Z,61.00
2018-09-21T14:02:55.998Z,60.20
2018-09-21T14:05:25.440Z,60.10
2018-09-21T14:07:54.813Z,60.60
2018-09-21T14:10:25.182Z,59.80
2018-09-21T14:12:54.572Z,61.10
2018-09-21T14:15:23.908Z,61.10
2018-09-21T14:17:54.285Z,61.40
2018-09-21T14:20:23.634Z,60.80
2018-09-21T14:22:53.058Z,60.30
2018-09-21T14:25:23.175Z,61.50
2018-09-21T14:27:52.606Z,61.40
2018-09-21T14:30:21.988Z,60.20
2018-09-21T14:32:51.614Z,61.40
2018-09-21T14:35:21.299Z,59.50
2018-09-21T14:37:50.657Z,61.20
2018-09-21T14:40:24.097Z,60.30
2018-09-21T14:42:53.473Z,60.10
2018-09-21T14:45:22.912Z,60.90
2018-09-21T14:47:52.426Z,60.00
2018-09-21T14:50:21.982Z,60.10
2018-09-21T14:52:53.458Z,60.20
2018-09-21T14:55:23.014Z,59.00
2018-09-21T14:57:52.536Z,59.50
2018-09-21T15:00:21.992Z,59.80
2018-09-21T15:02:54.501Z,61.70
2018-09-21T15:05:23.979Z,63.60
2018-09-21T15:07:53.408Z,65.10
2018-09-21T15:10:22.884Z,66.80
2018-09-21T15:12:52.509Z,69.00
2018-09-21T15:15:21.995Z,69.40
2018-09-21T15:17:51.903Z,71.20
2018-09-21T15:20:27.373Z,71.10
2018-09-21T15:22:58.833Z,71.10
2018-09-21T15:25:28.698Z,71.80
2018-09-21T15:27:58.091Z,73.50
2018-09-21T15:30:27.544Z,74.20
2018-09-21T15:32:57.028Z,74.40
2018-09-21T15:35:26.476Z,74.30
2018-09-21T15:37:56.069Z,75.10
2018-09-21T15:40:25.675Z,76.20
2018-09-21T15:42:56.108Z,77.90
2018-09-21T15:45:26.497Z,77.10
2018-09-21T15:47:55.904Z,77.00
2018-09-21T15:50:25.336Z,76.80
2018-09-21T15:52:55.788Z,77.80
2018-09-21T15:55:26.222Z,79.20
2018-09-21T15:57:55.708Z,77.80
2018-09-21T16:00:25.196Z,78.20
2018-09-21T16:02:54.841Z,78.10
2018-09-21T16:05:24.218Z,77.30
2018-09-21T16:07:53.665Z,77.00
2018-09-21T16:10:24.055Z,77.30
2018-09-21T16:12:53.468Z,77.70
2018-09-21T16:15:23.012Z,77.80
2018-09-21T16:17:52.472Z,77.60
2018-09-21T16:20:22.579Z,77.30
2018-09-21T16:22:52.083Z,76.80
2018-09-21T16:25:22.457Z,77.20
2018-09-21T16:27:52.908Z,78.00
2018-09-21T16:30:22.436Z,78.10
2018-09-21T16:32:52.610Z,79.20
2018-09-21T16:35:22.015Z,79.60
2018-09-21T16:37:51.624Z,78.80
2018-09-21T16:40:21.096Z,79.50
2018-09-21T16:42:50.606Z,80.50
2018-09-21T16:45:20.063Z,80.80
2018-09-21T16:47:49.577Z,81.20
2018-09-21T16:50:20.031Z,80.90
2018-09-21T16:52:49.633Z,82.00
2018-09-21T16:55:19.199Z,81.60
2018-09-21T16:57:49.734Z,81.90
2018-09-21T17:00:20.240Z,81.60
2018-09-21T17:02:49.806Z,81.90
2018-09-21T17:05:19.239Z,81.90
2018-09-21T17:07:48.663Z,81.80
2018-09-21T17:10:18.221Z,81.90
2018-09-21T17:12:48.484Z,82.60
2018-09-21T17:15:17.943Z,81.80
2018-09-21T17:17:47.412Z,81.70
2018-09-21T17:20:16.905Z,81.80
2018-09-21T17:22:46.244Z,80.70
2018-09-21T17:25:16.781Z,81.20
2018-09-21T17:27:47.325Z,80.40
2018-09-21T17:30:16.829Z,80.50
2018-09-21T17:32:47.290Z,80.10
2018-09-21T17:35:16.714Z,80.70
2018-09-21T17:37:46.173Z,79.80
2018-09-21T17:40:16.590Z,80.30
2018-09-21T17:42:46.062Z,79.70
2018-09-21T17:45:17.492Z,78.80
2018-09-21T17:47:46.941Z,76.60
2018-09-21T17:50:16.454Z,77.30
2018-09-21T17:52:45.939Z,78.10
2018-09-21T17:55:15.395Z,78.80
2018-09-21T17:57:45.475Z,77.90
2018-09-21T18:00:15.964Z,78.10
2018-09-21T18:02:45.332Z,81.10
2018-09-21T18:05:14.785Z,84.60
2018-09-21T18:07:46.255Z,90.30
2018-09-21T18:10:15.647Z,92.30
2018-09-21T18:12:45.693Z,93.40
2018-09-21T18:15:15.172Z,94.00
2018-09-21T18:17:46.581Z,96.20
2018-09-21T18:20:15.996Z,96.80
2018-09-21T18:22:45.423Z,97.10
2018-09-21T18:25:14.832Z,97.20
2018-09-21T18:27:44.179Z,98.30
2018-09-21T18:30:14.719Z,98.30
2018-09-21T18:32:44.287Z,97.10
2018-09-21T18:35:13.728Z,97.70
2018-09-21T18:37:43.176Z,98.00
2018-09-21T18:40:12.665Z,98.20
2018-09-21T18:42:42.144Z,98.00
2018-09-21T18:45:11.590Z,96.90
2018-09-21T18:47:41.077Z,98.00
2018-09-21T18:50:11.537Z,95.80
2018-09-21T18:52:40.928Z,96.30
2018-09-21T18:55:10.487Z,96.90
2018-09-21T18:57:40.962Z,97.50
2018-09-21T19:00:10.639Z,98.40
2018-09-21T19:02:40.056Z,98.00
2018-09-21T19:05:10.431Z,99.20
2018-09-21T19:07:40.133Z,99.90
2018-09-21T19:10:09.619Z,99.90
2018-09-21T19:12:39.309Z,99.90
2018-09-21T19:15:08.871Z,99.90
2018-09-21T19:17:38.547Z,99.90
2018-09-21T19:20:09.456Z,99.90
2018-09-21T19:22:39.178Z,99.90
2018-09-21T19:25:08.994Z,99.90
2018-09-21T19:27:38.745Z,99.90
2018-09-21T19:30:08.475Z,99.90
2018-09-21T19:32:41.357Z,99.90
2018-09-21T19:35:11.092Z,99.90
2018-09-21T19:37:40.902Z,99.90
2018-09-21T19:40:11.563Z,99.90
2018-09-21T19:42:41.111Z,99.90
2018-09-21T19:45:13.051Z,99.90
2018-09-21T19:47:42.512Z,99.90
2018-09-21T19:50:12.854Z,99.90
2018-09-21T19:52:42.311Z,99.90
2018-09-21T19:55:12.705Z,99.90
2018-09-21T19:57:42.287Z,99.90
2018-09-21T20:00:11.846Z,99.90
2018-09-21T20:02:41.230Z,99.90
2018-09-21T20:05:10.699Z,99.90
2018-09-21T20:07:40.198Z,99.90
2018-09-21T20:10:09.640Z,99.90
2018-09-21T20:12:39.896Z,99.90
2018-09-21T20:15:09.369Z,97.50
2018-09-21T20:17:38.977Z,97.80
2018-09-21T20:20:08.379Z,98.00
2018-09-21T20:22:37.843Z,96.70
2018-09-21T20:25:07.354Z,96.30
2018-09-21T20:27:36.703Z,98.30
2018-09-21T20:30:11.688Z,97.80
2018-09-21T20:32:46.429Z,99.80
2018-09-21T20:35:15.948Z,99.50
2018-09-21T20:37:45.413Z,98.80
2018-09-21T20:40:18.690Z,99.90
2018-09-21T20:42:48.188Z,99.90
2018-09-21T20:45:17.608Z,98.80
2018-09-21T20:47:47.015Z,99.50
2018-09-21T20:50:16.454Z,98.70
2018-09-21T20:52:45.822Z,97.70
2018-09-21T20:55:15.269Z,97.70
2018-09-21T20:57:44.632Z,98.00
2018-09-21T21:00:14.090Z,97.90
2018-09-21T21:02:44.300Z,96.60
2018-09-21T21:05:13.807Z,97.50
2018-09-21T21:07:44.146Z,99.00
2018-09-21T21:10:13.579Z,99.40
2018-09-21T21:12:42.967Z,98.40
2018-09-21T21:15:12.539Z,97.70
2018-09-21T21:17:41.918Z,99.30
2018-09-21T21:20:11.256Z,98.60
2018-09-21T21:22:40.650Z,98.00
2018-09-21T21:25:10.112Z,99.50
2018-09-21T21:27:39.460Z,99.90
2018-09-21T21:30:09.977Z,99.90
2018-09-21T21:32:39.441Z,99.90
2018-09-21T21:35:09.365Z,99.40
2018-09-21T21:37:38.837Z,99.00
2018-09-21T21:40:08.328Z,99.00
2018-09-21T21:42:37.680Z,99.20
2018-09-21T21:45:07.134Z,98.20
2018-09-21T21:47:36.554Z,97.50
2018-09-21T21:50:06.130Z,97.80
2018-09-21T21:52:36.519Z,98.20
2018-09-21T21:55:06.007Z,97.30
2018-09-21T21:57:36.362Z,97.50
2018-09-21T22:00:07.295Z,97.50
2018-09-21T22:02:36.699Z,98.10
2018-09-21T22:05:06.213Z,98.20
2018-09-21T22:07:37.001Z,98.80
2018-09-21T22:10:07.836Z,98.60
2018-09-21T22:12:42.414Z,98.20
2018-09-21T22:15:17.637Z,99.80
2018-09-21T22:17:47.783Z,98.20
2018-09-21T22:20:17.447Z,98.00
2018-09-21T22:22:46.801Z,98.50
2018-09-21T22:25:16.279Z,98.20
2018-09-21T22:27:46.676Z,97.90
2018-09-21T22:30:16.153Z,98.20
2018-09-21T22:32:45.561Z,97.70
2018-09-21T22:35:15.090Z,99.90
2018-09-21T22:37:44.467Z,97.80
2018-09-21T22:40:13.867Z,96.40
2018-09-21T22:42:43.334Z,97.40
2018-09-21T22:45:12.897Z,97.70
2018-09-21T22:47:42.244Z,95.70
2018-09-21T22:50:11.610Z,95.40
2018-09-21T22:52:41.062Z,96.30
2018-09-21T22:55:10.530Z,95.80
2018-09-21T22:57:39.991Z,96.00
2018-09-21T23:00:09.305Z,96.60
2018-09-21T23:02:38.805Z,96.70
2018-09-21T23:05:08.353Z,97.20
2018-09-21T23:07:37.856Z,96.10
2018-09-21T23:10:07.274Z,98.00
2018-09-21T23:12:37.281Z,96.90
2018-09-21T23:15:06.724Z,97.00
2018-09-21T23:17:36.139Z,97.50
2018-09-21T23:20:05.614Z,96.90
2018-09-21T23:22:35.113Z,94.70
2018-09-21T23:25:04.512Z,93.80
2018-09-21T23:27:33.878Z,93.70
2018-09-21T23:30:03.317Z,94.50
2018-09-21T23:32:32.742Z,93.60
2018-09-21T23:35:02.151Z,93.70
2018-09-21T23:37:31.521Z,95.00
2018-09-21T23:40:00.981Z,94.50
2018-09-21T23:42:30.690Z,93.70
2018-09-21T23:45:00.130Z,94.00
2018-09-21T23:47:29.503Z,93.20
2018-09-21T23:49:58.832Z,93.50
2018-09-21T23:52:28.368Z,93.90
2018-09-21T23:54:57.750Z,93.50
2018-09-21T23:57:27.870Z,93.60
2018-09-21T23:59:57.395Z,93.10
